Time;durP1;ratioP1;P1;durP2;ratioP2;P2;SDS_P1;SDS_P2;PMS_P1;PMS_P2;Temp;Humidity;BMP_temperature;BMP_pressure;BME280_temperature;BME280_humidity;BME280_pressure;Samples;Min_cycle;Max_cycle;Signal;HPM_P1;HPM_P2
2023/09/02 00:00:43;;;;;;;0.20;0.20;;;13.90;99.90;;;;;;5015591;28;20679;-79
2023/09/02 00:03:09;;;;;;;0.10;0.10;;;13.90;99.90;;;;;;5048301;28;20040;-79
2023/09/02 00:05:35;;;;;;;0.13;0.13;;;13.90;99.90;;;;;;5046944;28;20117;-79
2023/09/02 00:08:00;;;;;;;0.20;0.20;;;13.90;99.90;;;;;;5028962;28;20115;-79
2023/09/02 00:10:26;;;;;;;0.20;0.20;;;13.90;99.90;;;;;;5049974;28;20429;-78
2023/09/02 00:12:52;;;;;;;0.20;0.20;;;13.90;99.90;;;;;;5048257;28;20095;-79
2023/09/02 00:15:18;;;;;;;0.20;0.20;;;14.00;99.90;;;;;;5049450;28;20090;-78
2023/09/02 00:17:43;;;;;;;0.10;0.10;;;13.90;99.90;;;;;;5030408;28;20191;-79
2023/09/02 00:20:10;;;;;;;0.20;0.20;;;13.90;99.90;;;;;;5018557;28;20038;-78
2023/09/02 00:22:35;;;;;;;0.20;0.20;;;13.90;99.90;;;;;;5023726;28;20055;-82
2023/09/02 00:25:01;;;;;;;0.20;0.20;;;13.90;99.90;;;;;;5029624;28;20183;-79
2023/09/02 00:27:27;;;;;;;0.20;0.20;;;13.90;99.90;;;;;;5029027;28;20481;-79
2023/09/02 00:29:52;;;;;;;0.13;0.13;;;13.90;99.90;;;;;;5040614;28;20037;-79
2023/09/02 00:32:19;;;;;;;0.20;0.20;;;13.90;99.90;;;;;;5047963;28;20045;-79
2023/09/02 00:34:46;;;;;;;0.20;0.20;;;13.80;99.90;;;;;;5030624;28;20374;-79
2023/09/02 00:37:11;;;;;;;0.10;0.10;;;13.80;99.90;;;;;;5047348;28;20124;-78
2023/09/02 00:39:37;;;;;;;0.20;0.20;;;13.80;99.90;;;;;;5030262;28;20599;-79
2023/09/02 00:42:06;;;;;;;0.20;0.20;;;13.70;99.90;;;;;;5031081;28;20079;-80
2023/09/02 00:44:34;;;;;;;0.20;0.20;;;13.70;99.90;;;;;;5023296;28;20045;-79
2023/09/02 00:47:02;;;;;;;0.10;0.10;;;13.70;99.90;;;;;;5032873;28;20631;-79
2023/09/02 00:49:27;;;;;;;0.10;0.10;;;13.70;99.90;;;;;;5034155;28;20056;-79
2023/09/02 00:51:53;;;;;;;0.15;0.15;;;13.70;99.90;;;;;;5051729;28;20049;-79
2023/09/02 00:54:19;;;;;;;0.10;0.10;;;13.60;99.90;;;;;;5034816;28;20537;-79
2023/09/02 00:56:44;;;;;;;0.20;0.20;;;13.60;99.90;;;;;;5035253;28;20157;-80
2023/09/02 00:59:11;;;;;;;0.20;0.20;;;13.60;99.90;;;;;;5032776;28;20041;-80
2023/09/02 01:01:41;;;;;;;0.20;0.20;;;13.60;99.90;;;;;;5024063;28;20056;-79
2023/09/02 01:04:07;;;;;;;0.20;0.20;;;13.60;99.90;;;;;;5033708;28;20061;-79
2023/09/02 01:06:37;;;;;;;0.17;0.17;;;13.50;99.90;;;;;;5033908;28;20053;-79
2023/09/02 01:09:04;;;;;;;0.15;0.15;;;13.50;99.90;;;;;;5034075;28;20166;-79
2023/09/02 01:11:30;;;;;;;0.10;0.10;;;13.50;99.90;;;;;;5032642;28;20122;-79
2023/09/02 01:13:57;;;;;;;0.10;0.10;;;13.50;99.90;;;;;;5049225;28;20057;-80
2023/09/02 01:16:23;;;;;;;0.10;0.10;;;13.50;99.90;;;;;;5033473;28;20428;-79
2023/09/02 01:18:49;;;;;;;0.17;0.17;;;13.50;99.90;;;;;;5028997;28;20051;-80
2023/09/02 01:21:43;;;;;;;0.10;0.10;;;13.40;99.90;;;;;;5033945;28;20047;-79
2023/09/02 01:24:28;;;;;;;0.10;0.10;;;13.40;99.90;;;;;;5032964;28;20053;-79
2023/09/02 01:27:16;;;;;;;0.20;0.20;;;13.40;99.90;;;;;;5018128;28;20094;-79
2023/09/02 01:30:04;;;;;;;0.10;0.10;;;13.40;99.90;;;;;;5028985;28;20153;-79
2023/09/02 01:32:34;;;;;;;0.20;0.20;;;13.40;99.90;;;;;;5049904;28;20057;-79
2023/09/02 01:35:06;;;;;;;0.20;0.20;;;13.30;99.90;;;;;;5033419;28;20048;-78
2023/09/02 01:37:34;;;;;;;0.20;0.20;;;13.40;99.90;;;;;;5033644;28;20089;-79
2023/09/02 01:40:04;;;;;;;0.20;0.20;;;13.40;99.90;;;;;;5041421;28;20049;-78
2023/09/02 01:42:30;;;;;;;0.10;0.10;;;13.30;99.90;;;;;;5055151;28;20052;-78
2023/09/02 01:44:57;;;;;;;0.20;0.20;;;13.30;99.90;;;;;;5032768;28;20033;-79
2023/09/02 01:47:23;;;;;;;0.10;0.10;;;13.40;99.90;;;;;;5032480;28;20060;-79
2023/09/02 01:49:51;;;;;;;0.20;0.20;;;13.40;99.90;;;;;;5028688;28;20037;-78
2023/09/02 01:52:18;;;;;;;0.20;0.20;;;13.30;99.90;;;;;;5047082;28;20049;-78
2023/09/02 01:54:44;;;;;;;0.20;0.20;;;13.30;99.90;;;;;;5032381;28;20045;-79
2023/09/02 01:57:11;;;;;;;0.20;0.20;;;13.20;99.90;;;;;;5032753;28;20052;-79
2023/09/02 01:59:37;;;;;;;0.20;0.20;;;13.20;99.90;;;;;;5051507;28;20116;-79
2023/09/02 02:02:03;;;;;;;0.13;0.13;;;13.20;99.90;;;;;;5040247;28;20133;-79
2023/09/02 02:04:38;;;;;;;0.20;0.20;;;13.20;99.90;;;;;;5027623;28;20048;-79
2023/09/02 02:07:15;;;;;;;0.20;0.20;;;13.10;99.90;;;;;;5031988;28;20092;-79
2023/09/02 02:09:48;;;;;;;0.13;0.13;;;13.10;99.90;;;;;;5032770;28;20037;-79
2023/09/02 02:12:14;;;;;;;0.20;0.20;;;13.10;99.90;;;;;;5032806;28;20505;-80
2023/09/02 02:14:40;;;;;;;0.20;0.20;;;13.00;99.90;;;;;;5041955;28;20086;-79
2023/09/02 02:17:06;;;;;;;0.20;0.20;;;13.00;99.90;;;;;;5032063;28;20048;-79
2023/09/02 02:19:33;;;;;;;0.13;0.13;;;13.00;99.90;;;;;;5045180;28;20041;-79
2023/09/02 02:21:59;;;;;;;0.20;0.20;;;13.00;99.90;;;;;;5032334;28;20392;-79
2023/09/02 02:24:25;;;;;;;0.10;0.10;;;13.00;99.90;;;;;;5050406;28;20045;-79
2023/09/02 02:26:51;;;;;;;0.10;0.10;;;13.00;99.90;;;;;;5032506;28;20048;-79
2023/09/02 02:29:17;;;;;;;0.10;0.10;;;13.00;99.90;;;;;;5030536;28;20045;-79
2023/09/02 02:31:43;;;;;;;0.20;0.20;;;13.00;99.90;;;;;;5031706;28;20120;-79
2023/09/02 02:34:08;;;;;;;0.20;0.20;;;12.90;99.90;;;;;;5050403;28;20041;-79
2023/09/02 02:36:34;;;;;;;0.20;0.20;;;12.90;99.90;;;;;;5031360;28;20392;-79
2023/09/02 02:39:00;;;;;;;0.17;0.17;;;12.90;99.90;;;;;;5032581;28;20051;-79
2023/09/02 02:41:25;;;;;;;0.20;0.20;;;12.90;99.90;;;;;;5031026;28;20031;-78
2023/09/02 02:43:51;;;;;;;0.13;0.13;;;12.90;99.90;;;;;;5050029;28;20033;-79
2023/09/02 02:46:17;;;;;;;0.10;0.10;;;12.90;99.90;;;;;;5050004;28;20041;-78
2023/09/02 02:48:42;;;;;;;0.20;0.20;;;12.90;99.90;;;;;;5048401;28;20044;-79
2023/09/02 02:51:09;;;;;;;0.20;0.20;;;12.80;99.90;;;;;;5025386;28;20045;-79
2023/09/02 02:53:34;;;;;;;0.10;0.10;;;12.90;99.90;;;;;;5012966;28;20045;-79
2023/09/02 02:56:03;;;;;;;0.20;0.20;;;12.80;99.90;;;;;;5042730;28;20372;-78
2023/09/02 02:58:29;;;;;;;0.20;0.20;;;12.90;99.90;;;;;;5032013;28;20076;-79
2023/09/02 03:01:06;;;;;;;0.10;0.10;;;12.80;99.90;;;;;;5031874;28;20045;-79
2023/09/02 03:03:32;;;;;;;0.20;0.20;;;12.90;99.90;;;;;;5031804;28;20049;-78
2023/09/02 03:06:05;;;;;;;0.20;0.20;;;12.80;99.90;;;;;;5050364;28;20373;-78
2023/09/02 03:08:32;;;;;;;0.10;0.10;;;12.80;99.90;;;;;;5049793;28;20041;-78
2023/09/02 03:11:00;;;;;;;0.20;0.20;;;12.80;99.90;;;;;;5040995;28;20040;-79
2023/09/02 03:13:25;;;;;;;0.20;0.20;;;12.80;99.90;;;;;;5050161;28;20041;-78
2023/09/02 03:15:53;;;;;;;0.20;0.20;;;12.80;99.90;;;;;;5031523;28;20116;-79
2023/09/02 03:18:20;;;;;;;0.20;0.20;;;12.80;99.90;;;;;;5022527;28;20139;-79
2023/09/02 03:20:45;;;;;;;0.20;0.20;;;12.80;99.90;;;;;;5048900;28;20068;-79
2023/09/02 03:23:11;;;;;;;0.10;0.10;;;12.70;99.90;;;;;;5049704;28;20056;-78
2023/09/02 03:25:37;;;;;;;0.20;0.20;;;12.70;99.90;;;;;;5022488;28;20446;-79
2023/09/02 03:28:04;;;;;;;0.20;0.20;;;12.70;99.90;;;;;;5046226;28;20079;-78
2023/09/02 03:30:30;;;;;;;0.10;0.10;;;12.70;99.90;;;;;;5031622;28;20401;-79
2023/09/02 03:32:56;;;;;;;0.10;0.10;;;12.40;99.90;;;;;;5029951;28;20056;-78
2023/09/02 03:35:22;;;;;;;0.20;0.20;;;12.70;99.90;;;;;;5031570;28;20044;-79
2023/09/02 03:37:48;;;;;;;0.20;0.20;;;12.70;99.90;;;;;;5048216;28;20053;-78
2023/09/02 03:40:13;;;;;;;0.20;0.20;;;12.70;99.90;;;;;;5025421;28;20052;-78
2023/09/02 03:42:39;;;;;;;0.20;0.20;;;12.70;99.90;;;;;;5048574;28;20052;-78
2023/09/02 03:45:05;;;;;;;0.15;0.15;;;12.70;99.90;;;;;;5031722;28;20093;-79
2023/09/02 03:47:32;;;;;;;0.10;0.10;;;12.70;99.90;;;;;;5031355;28;20135;-78
2023/09/02 03:49:58;;;;;;;0.20;0.20;;;12.70;99.90;;;;;;5030838;28;20068;-78
2023/09/02 03:52:24;;;;;;;0.10;0.10;;;12.60;99.90;;;;;;5031552;28;20049;-79
2023/09/02 03:54:50;;;;;;;0.20;0.20;;;12.60;99.90;;;;;;5028681;28;20128;-81
2023/09/02 03:57:16;;;;;;;0.20;0.20;;;12.70;99.90;;;;;;5030466;28;20045;-79
2023/09/02 03:59:41;;;;;;;0.10;0.10;;;12.70;99.90;;;;;;5026189;28;20515;-79
2023/09/02 04:02:07;;;;;;;0.15;0.15;;;12.70;99.90;;;;;;5030127;28;20045;-79
2023/09/02 04:04:33;;;;;;;0.10;0.10;;;12.70;99.90;;;;;;5031176;28;20194;-79
2023/09/02 04:06:59;;;;;;;0.20;0.20;;;12.70;99.90;;;;;;5047805;28;20049;-79
2023/09/02 04:09:25;;;;;;;0.15;0.15;;;12.70;99.90;;;;;;5048375;28;20540;-79
2023/09/02 04:11:50;;;;;;;0.17;0.17;;;12.80;99.90;;;;;;5029707;28;20041;-79
2023/09/02 04:14:16;;;;;;;0.20;0.20;;;12.70;99.90;;;;;;5042264;28;20029;-79
2023/09/02 04:16:42;;;;;;;0.20;0.20;;;12.80;99.90;;;;;;5031165;28;20083;-79
2023/09/02 04:19:08;;;;;;;0.20;0.20;;;12.70;99.90;;;;;;5049321;28;20033;-80
2023/09/02 04:21:34;;;;;;;0.10;0.10;;;12.70;99.90;;;;;;5030221;28;20048;-79
2023/09/02 04:24:00;;;;;;;0.10;0.10;;;12.70;99.90;;;;;;5048677;28;20373;-79
2023/09/02 04:26:26;;;;;;;0.10;0.10;;;12.80;99.90;;;;;;5047507;28;20120;-78
2023/09/02 04:28:55;;;;;;;0.20;0.20;;;12.70;99.90;;;;;;5029885;28;20112;-79
2023/09/02 04:31:21;;;;;;;0.13;0.13;;;12.80;99.90;;;;;;5028704;28;20068;-78
2023/09/02 04:33:47;;;;;;;0.20;0.20;;;12.70;99.90;;;;;;5018260;28;20048;-79
2023/09/02 04:36:13;;;;;;;0.20;0.20;;;12.70;99.90;;;;;;5042372;28;20041;-79
2023/09/02 04:38:39;;;;;;;0.10;0.10;;;12.80;99.90;;;;;;5014173;28;20044;-79
2023/09/02 04:41:07;;;;;;;0.20;0.20;;;12.70;99.90;;;;;;5031162;28;20048;-79
2023/09/02 04:43:34;;;;;;;0.20;0.20;;;12.70;99.90;;;;;;5047922;28;20088;-79
2023/09/02 04:46:02;;;;;;;0.10;0.10;;;12.70;99.90;;;;;;5020950;28;20102;-79
2023/09/02 04:48:28;;;;;;;0.20;0.20;;;12.70;99.90;;;;;;5030858;28;20507;-79
2023/09/02 04:50:54;;;;;;;0.20;0.20;;;12.70;99.90;;;;;;5029788;28;20516;-79
2023/09/02 04:53:20;;;;;;;0.10;0.10;;;12.70;99.90;;;;;;5048343;28;20052;-79
2023/09/02 04:55:47;;;;;;;0.20;0.20;;;12.70;99.90;;;;;;5029971;28;20125;-78
2023/09/02 04:58:13;;;;;;;0.20;0.20;;;12.70;99.90;;;;;;5046933;28;20041;-79
2023/09/02 05:00:39;;;;;;;0.20;0.20;;;12.70;99.90;;;;;;5037811;28;20040;-79
2023/09/02 05:03:05;;;;;;;0.20;0.20;;;12.70;99.90;;;;;;5047857;28;20080;-79
2023/09/02 05:05:34;;;;;;;0.15;0.15;;;12.80;99.90;;;;;;5028303;28;20049;-78
2023/09/02 05:08:00;;;;;;;0.15;0.15;;;12.70;99.90;;;;;;5028813;28;20053;-79
2023/09/02 05:10:26;;;;;;;0.10;0.10;;;12.80;99.90;;;;;;5044861;28;20524;-78
2023/09/02 05:12:52;;;;;;;0.15;0.15;;;12.80;99.90;;;;;;5029723;28;20041;-79
2023/09/02 05:15:17;;;;;;;0.20;0.20;;;12.80;99.90;;;;;;5025654;28;20470;-78
2023/09/02 05:17:43;;;;;;;0.13;0.13;;;12.80;99.90;;;;;;5046883;28;20040;-79
2023/09/02 05:20:09;;;;;;;0.20;0.20;;;12.80;99.90;;;;;;5028237;28;20045;-79
2023/09/02 05:22:36;;;;;;;0.10;0.10;;;12.80;99.90;;;;;;5016515;28;20145;-78
2023/09/02 05:25:03;;;;;;;0.15;0.15;;;12.80;99.90;;;;;;5027913;28;20044;-79
2023/09/02 05:27:29;;;;;;;0.20;0.20;;;12.80;99.90;;;;;;5048247;28;20041;-79
2023/09/02 05:29:55;;;;;;;0.10;0.10;;;12.80;99.90;;;;;;5030327;28;20053;-79
2023/09/02 05:32:21;;;;;;;0.20;0.20;;;12.80;99.90;;;;;;5029274;28;20114;-79
2023/09/02 05:34:47;;;;;;;0.20;0.20;;;12.80;99.90;;;;;;5032170;28;20520;-79
2023/09/02 05:37:13;;;;;;;0.10;0.10;;;12.80;99.90;;;;;;5047688;28;20045;-78
2023/09/02 05:39:38;;;;;;;0.10;0.10;;;12.80;99.90;;;;;;5030428;28;20045;-79
2023/09/02 05:42:04;;;;;;;0.20;0.20;;;12.80;99.90;;;;;;5033287;28;20142;-79
2023/09/02 05:44:31;;;;;;;0.20;0.20;;;12.80;99.90;;;;;;5034260;28;20052;-79
2023/09/02 05:46:56;;;;;;;0.20;0.20;;;12.80;99.90;;;;;;5031737;28;20059;-78
2023/09/02 05:49:22;;;;;;;0.20;0.20;;;12.90;99.90;;;;;;5031814;28;20037;-79
2023/09/02 05:51:47;;;;;;;0.20;0.20;;;13.00;99.90;;;;;;5017726;28;20050;-79
2023/09/02 05:54:13;;;;;;;0.20;0.20;;;13.00;99.90;;;;;;5037621;28;20040;-79
2023/09/02 05:56:39;;;;;;;0.13;0.13;;;13.00;99.90;;;;;;5048550;28;20072;-78
2023/09/02 05:59:05;;;;;;;0.20;0.20;;;13.10;99.90;;;;;;5048381;28;20041;-79
2023/09/02 06:01:31;;;;;;;0.20;0.20;;;13.10;99.90;;;;;;5032229;28;20045;-79
2023/09/02 06:03:57;;;;;;;0.20;0.20;;;13.20;99.90;;;;;;5031865;28;20404;-79
2023/09/02 06:06:23;;;;;;;0.10;0.10;;;13.10;99.90;;;;;;5024836;28;20049;-79
2023/09/02 06:08:49;;;;;;;0.20;0.20;;;13.20;99.90;;;;;;5033916;28;20495;-78
2023/09/02 06:11:15;;;;;;;2.25;0.50;;;13.20;99.90;;;;;;5050589;28;20076;-78
2023/09/02 06:13:41;;;;;;;0.10;0.10;;;13.30;99.90;;;;;;5032750;28;20049;-79
2023/09/02 06:16:07;;;;;;;0.10;0.10;;;13.30;99.90;;;;;;5050806;28;20032;-79
2023/09/02 06:18:34;;;;;;;0.20;0.20;;;13.40;99.90;;;;;;5050536;28;20044;-79
2023/09/02 06:21:13;;;;;;;0.20;0.20;;;13.50;99.90;;;;;;5030569;28;20044;-79
2023/09/02 06:23:43;;;;;;;0.20;0.20;;;13.50;99.90;;;;;;5051448;28;20049;-79
2023/09/02 06:26:09;;;;;;;0.10;0.10;;;13.60;99.90;;;;;;5032594;28;20037;-79
2023/09/02 06:28:35;;;;;;;0.20;0.20;;;13.60;99.90;;;;;;5032989;28;20048;-79
2023/09/02 06:31:08;;;;;;;0.10;0.10;;;13.70;99.90;;;;;;5048345;28;20037;-79
2023/09/02 06:33:35;;;;;;;0.20;0.20;;;13.70;99.90;;;;;;5049037;28;20070;-79
2023/09/02 06:36:09;;;;;;;0.10;0.10;;;13.80;99.90;;;;;;5027073;28;20047;-79
2023/09/02 06:38:34;;;;;;;0.20;0.20;;;13.80;99.90;;;;;;5033019;28;20534;-79
2023/09/02 06:41:07;;;;;;;0.10;0.10;;;13.90;99.90;;;;;;5050016;28;20073;-79
2023/09/02 06:43:33;;;;;;;0.10;0.10;;;13.90;99.90;;;;;;5029971;28;20048;-79
2023/09/02 06:46:07;;;;;;;0.20;0.20;;;13.90;99.90;;;;;;5050287;28;20048;-79
2023/09/02 06:48:33;;;;;;;0.10;0.10;;;14.00;99.90;;;;;;5048953;28;20123;-79
2023/09/02 06:50:59;;;;;;;0.10;0.10;;;14.10;99.90;;;;;;5031647;28;20121;-79
2023/09/02 06:53:24;;;;;;;0.20;0.20;;;14.10;99.90;;;;;;5033353;28;20450;-79
2023/09/02 06:55:50;;;;;;;0.20;0.20;;;14.10;99.90;;;;;;5029758;28;20036;-79
2023/09/02 06:58:16;;;;;;;0.20;0.20;;;14.20;99.90;;;;;;5025497;28;20131;-79
2023/09/02 07:00:41;;;;;;;0.10;0.10;;;14.30;99.90;;;;;;5030950;28;20163;-79
2023/09/02 07:03:07;;;;;;;0.20;0.20;;;14.30;99.90;;;;;;5048935;28;20124;-79
2023/09/02 07:05:32;;;;;;;0.17;0.17;;;14.40;99.90;;;;;;5026451;28;20065;-79
2023/09/02 07:07:59;;;;;;;0.20;0.20;;;14.40;99.90;;;;;;5031106;28;20041;-79
2023/09/02 07:10:25;;;;;;;0.17;0.17;;;14.50;99.90;;;;;;5030416;28;20179;-79
2023/09/02 07:12:52;;;;;;;0.20;0.20;;;14.50;99.90;;;;;;5034459;28;20123;-79
2023/09/02 07:15:18;;;;;;;0.10;0.10;;;14.50;99.90;;;;;;5023820;28;20269;-79
2023/09/02 07:17:44;;;;;;;0.10;0.10;;;14.60;99.90;;;;;;5028916;28;20511;-79
2023/09/02 07:20:10;;;;;;;0.10;0.10;;;14.70;99.90;;;;;;5029060;28;20389;-79
2023/09/02 07:22:36;;;;;;;0.20;0.20;;;14.70;99.90;;;;;;5031355;28;20052;-79
2023/09/02 07:25:01;;;;;;;0.50;0.50;;;14.80;99.90;;;;;;5030888;28;20041;-79
2023/09/02 07:27:27;;;;;;;0.20;0.20;;;14.80;99.90;;;;;;5032078;28;20159;-80
2023/09/02 07:29:53;;;;;;;0.10;0.10;;;14.90;99.90;;;;;;5050587;28;20037;-79
2023/09/02 07:32:18;;;;;;;0.20;0.20;;;15.00;99.90;;;;;;5047386;28;20044;-79
2023/09/02 07:34:44;;;;;;;0.35;0.35;;;15.10;99.90;;;;;;5028463;28;20052;-80
2023/09/02 07:37:10;;;;;;;0.10;0.10;;;15.20;99.90;;;;;;5025652;28;20033;-80
2023/09/02 07:39:35;;;;;;;0.10;0.10;;;15.20;99.90;;;;;;5031574;28;20071;-79
2023/09/02 07:42:01;;;;;;;0.10;0.10;;;15.30;99.90;;;;;;5032069;28;20098;-80
2023/09/02 07:44:27;;;;;;;0.63;0.25;;;15.40;99.90;;;;;;5030719;28;20060;-78
2023/09/02 07:46:54;;;;;;;0.20;0.20;;;15.40;99.90;;;;;;5028312;28;20563;-80
2023/09/02 07:49:19;;;;;;;0.15;0.15;;;15.50;99.90;;;;;;5036621;28;20380;-80
2023/09/02 07:51:45;;;;;;;0.20;0.20;;;15.60;99.90;;;;;;5030806;28;20041;-79
2023/09/02 07:54:10;;;;;;;0.10;0.10;;;15.60;99.90;;;;;;5049255;28;20037;-80
2023/09/02 07:56:36;;;;;;;0.10;0.10;;;15.70;99.90;;;;;;5030303;28;20114;-79
2023/09/02 07:59:02;;;;;;;0.20;0.20;;;15.70;99.90;;;;;;5031092;28;20080;-79
2023/09/02 08:01:29;;;;;;;0.20;0.20;;;15.80;99.90;;;;;;5049599;28;20132;-79
2023/09/02 08:03:55;;;;;;;0.20;0.20;;;15.80;99.90;;;;;;5029950;28;20469;-78
2023/09/02 08:06:20;;;;;;;0.10;0.10;;;15.90;99.90;;;;;;5017854;28;20144;-78
2023/09/02 08:08:46;;;;;;;0.13;0.13;;;16.00;99.90;;;;;;5012355;28;20049;-78
2023/09/02 08:11:17;;;;;;;0.20;0.20;;;16.00;99.90;;;;;;5029321;28;20029;-78
2023/09/02 08:13:43;;;;;;;0.20;0.20;;;16.10;99.90;;;;;;5047271;28;20045;-80
2023/09/02 08:16:09;;;;;;;0.20;0.20;;;;;;;;;;5028565;28;20135;-80
2023/09/02 08:18:35;;;;;;;0.20;0.20;;;16.20;99.90;;;;;;5048114;28;20127;-79
2023/09/02 08:21:08;;;;;;;0.20;0.20;;;16.30;99.90;;;;;;5040766;28;20416;-80
2023/09/02 08:23:33;;;;;;;0.20;0.20;;;16.40;99.90;;;;;;5031564;28;20082;-79
2023/09/02 08:26:05;;;;;;;0.20;0.20;;;16.40;99.90;;;;;;5030572;28;20056;-79
2023/09/02 08:28:31;;;;;;;0.20;0.20;;;16.40;99.90;;;;;;5031430;28;20040;-78
2023/09/02 08:30:57;;;;;;;0.10;0.10;;;16.50;99.90;;;;;;5030218;28;20052;-78
2023/09/02 08:33:22;;;;;;;0.20;0.20;;;16.50;99.90;;;;;;5047494;28;20049;-79
2023/09/02 08:35:48;;;;;;;0.10;0.10;;;16.60;99.90;;;;;;5030437;28;20102;-79
2023/09/02 08:38:13;;;;;;;0.20;0.20;;;16.70;99.90;;;;;;5032081;28;20044;-78
2023/09/02 08:40:43;;;;;;;0.20;0.20;;;16.70;99.90;;;;;;5047724;28;20048;-79
2023/09/02 08:43:09;;;;;;;0.20;0.20;;;16.80;99.90;;;;;;5047227;28;20061;-79
2023/09/02 08:45:38;;;;;;;0.20;0.20;;;16.90;99.90;;;;;;5049659;28;20049;-78
2023/09/02 08:48:11;;;;;;;0.15;0.15;;;16.90;99.90;;;;;;5027048;28;20041;-78
2023/09/02 08:50:36;;;;;;;0.20;0.20;;;17.00;99.90;;;;;;5041370;28;20063;-79
2023/09/02 08:53:03;;;;;;;0.20;0.20;;;17.00;99.90;;;;;;5028500;28;20049;-79
2023/09/02 08:55:31;;;;;;;0.20;0.20;;;17.10;99.90;;;;;;5042039;28;20741;-79
2023/09/02 08:57:57;;;;;;;0.20;0.20;;;17.20;99.90;;;;;;5021226;28;20049;-79
2023/09/02 09:00:23;;;;;;;0.20;0.20;;;17.20;99.90;;;;;;5024458;28;20067;-79
2023/09/02 09:02:49;;;;;;;0.20;0.20;;;17.30;99.90;;;;;;5022263;28;20049;-79
2023/09/02 09:05:15;;;;;;;0.20;0.20;;;17.40;99.90;;;;;;5027596;28;20128;-78
2023/09/02 09:07:41;;;;;;;0.20;0.20;;;17.40;99.90;;;;;;5047269;28;20156;-79
2023/09/02 09:10:10;;;;;;;0.17;0.17;;;17.50;99.90;;;;;;5050698;28;20068;-79
2023/09/02 09:12:36;;;;;;;0.20;0.20;;;17.50;99.90;;;;;;5032090;28;20216;-79
2023/09/02 09:15:03;;;;;;;0.20;0.20;;;17.60;99.90;;;;;;5044809;28;20174;-78
2023/09/02 09:17:32;;;;;;;0.20;0.20;;;17.70;99.90;;;;;;5042979;28;20191;-79
2023/09/02 09:20:01;;;;;;;0.10;0.10;;;17.70;99.90;;;;;;5027977;28;20044;-78
2023/09/02 09:22:27;;;;;;;0.20;0.20;;;17.80;99.90;;;;;;5049825;28;20067;-79
2023/09/02 09:24:53;;;;;;;0.15;0.15;;;17.90;99.90;;;;;;5046384;28;20075;-78
2023/09/02 09:27:18;;;;;;;0.20;0.20;;;17.90;99.90;;;;;;5033270;28;20041;-78
2023/09/02 09:29:45;;;;;;;0.20;0.20;;;18.00;99.90;;;;;;5049616;28;20041;-79
2023/09/02 09:32:14;;;;;;;0.20;0.20;;;18.00;99.90;;;;;;5031297;28;20523;-79
2023/09/02 09:34:44;;;;;;;0.20;0.20;;;18.10;99.90;;;;;;5029455;28;20143;-79
2023/09/02 09:37:10;;;;;;;0.20;0.20;;;18.10;99.90;;;;;;5049114;28;20373;-79
2023/09/02 09:39:41;;;;;;;0.20;0.20;;;18.20;99.90;;;;;;5025552;28;20155;-78
2023/09/02 09:42:07;;;;;;;0.20;0.20;;;18.30;99.90;;;;;;5023253;28;20048;-77
2023/09/02 09:44:33;;;;;;;0.20;0.20;;;18.40;99.90;;;;;;5029858;28;20041;-79
2023/09/02 09:46:58;;;;;;;0.20;0.20;;;18.40;99.90;;;;;;5026432;28;20033;-79
2023/09/02 09:49:24;;;;;;;0.20;0.20;;;18.50;99.90;;;;;;5045343;28;20084;-80
2023/09/02 09:52:10;;;;;;;0.17;0.17;;;18.60;99.90;;;;;;5032487;28;20080;-81
2023/09/02 09:54:45;;;;;;;0.20;0.20;;;18.70;99.90;;;;;;5027887;28;20052;-82
2023/09/02 09:57:18;;;;;;;0.20;0.20;;;18.80;99.90;;;;;;5048989;28;20485;-82
2023/09/02 09:59:54;;;;;;;0.20;0.20;;;18.90;99.90;;;;;;5032203;28;20120;-83
2023/09/02 10:02:21;;;;;;;0.20;0.20;;;19.00;99.90;;;;;;5035006;28;20408;-81
2023/09/02 10:04:56;;;;;;;0.20;0.20;;;19.10;99.90;;;;;;5051349;28;20116;-82
2023/09/02 10:07:33;;;;;;;0.20;0.20;;;19.30;99.90;;;;;;5032131;28;20114;-82
2023/09/02 10:10:04;;;;;;;0.20;0.20;;;19.40;99.90;;;;;;5051371;28;20041;-82
2023/09/02 10:12:35;;;;;;;0.20;0.20;;;19.50;99.90;;;;;;5032250;28;20056;-82
2023/09/02 10:15:02;;;;;;;0.20;0.20;;;19.60;99.90;;;;;;5032894;28;20045;-83
2023/09/02 10:17:29;;;;;;;0.20;0.20;;;19.60;99.90;;;;;;5032533;28;20083;-83
2023/09/02 10:19:55;;;;;;;0.20;0.20;;;19.60;99.90;;;;;;5017139;28;20065;-83
2023/09/02 10:22:21;;;;;;;0.25;0.25;;;19.70;99.90;;;;;;5024662;28;20631;-82
2023/09/02 10:25:01;;;;;;;0.20;0.20;;;19.70;99.90;;;;;;5032978;28;20045;-84
2023/09/02 10:27:38;;;;;;;0.10;0.10;;;19.80;99.90;;;;;;5032470;28;20056;-82
2023/09/02 10:30:06;;;;;;;0.20;0.20;;;19.90;99.90;;;;;;5033631;28;20063;-83
2023/09/02 10:32:48;;;;;;;0.20;0.20;;;19.90;99.90;;;;;;5031437;28;20056;-83
2023/09/02 10:35:19;;;;;;;0.20;0.20;;;20.00;99.90;;;;;;5050494;28;20108;-83
2023/09/02 10:37:55;;;;;;;0.20;0.20;;;20.10;99.90;;;;;;5050435;28;20057;-85
2023/09/02 10:40:27;;;;;;;0.20;0.20;;;20.20;99.90;;;;;;5023660;28;20045;-83
2023/09/02 10:42:53;;;;;;;0.20;0.20;;;20.30;99.90;;;;;;5047686;28;20080;-84
2023/09/02 10:45:20;;;;;;;0.20;0.20;;;20.40;99.90;;;;;;5041922;28;20419;-84
2023/09/02 10:47:47;;;;;;;0.20;0.20;;;20.50;99.90;;;;;;5023308;28;20037;-84
2023/09/02 10:50:15;;;;;;;0.15;0.15;;;20.50;99.90;;;;;;5048141;28;20091;-84
2023/09/02 10:52:40;;;;;;;0.20;0.20;;;20.50;99.90;;;;;;5026839;28;20168;-83
2023/09/02 10:55:08;;;;;;;0.20;0.20;;;20.50;99.90;;;;;;5044165;28;20105;-82
2023/09/02 10:57:50;;;;;;;0.20;0.20;;;20.50;99.90;;;;;;5029018;28;20059;-84
2023/09/02 11:00:21;;;;;;;0.20;0.20;;;20.60;99.90;;;;;;5031303;28;20091;-84
2023/09/02 11:02:49;;;;;;;0.20;0.20;;;20.70;99.90;;;;;;5026255;28;20048;-83
2023/09/02 11:05:16;;;;;;;0.20;0.20;;;20.80;99.90;;;;;;5021726;28;20079;-83
2023/09/02 11:07:42;;;;;;;0.20;0.20;;;20.80;99.90;;;;;;5042203;28;20485;-83
2023/09/02 11:10:09;;;;;;;0.22;0.22;;;20.70;99.90;;;;;;5025669;28;20041;-83
2023/09/02 11:13:02;;;;;;;0.40;0.30;;;20.80;99.90;;;;;;5044417;28;20063;-83
2023/09/02 11:15:32;;;;;;;0.20;0.20;;;20.80;99.90;;;;;;5027143;28;20056;-83
2023/09/02 11:18:25;;;;;;;0.20;0.20;;;20.90;99.90;;;;;;5049473;28;20063;-82
2023/09/02 11:20:52;;;;;;;0.20;0.20;;;21.00;99.90;;;;;;5048159;28;20565;-83
2023/09/02 11:23:21;;;;;;;0.20;0.20;;;21.10;99.90;;;;;;5029901;28;20041;-82
2023/09/02 11:26:03;;;;;;;0.20;0.20;;;21.20;99.90;;;;;;5028839;28;20049;-84
2023/09/02 11:28:29;;;;;;;0.20;0.20;;;21.40;99.90;;;;;;5032022;28;20079;-83
2023/09/02 11:31:12;;;;;;;0.20;0.20;;;21.50;99.90;;;;;;5044464;28;20118;-83
2023/09/02 11:33:47;;;;;;;0.20;0.20;;;21.60;99.90;;;;;;5043730;28;20485;-83
2023/09/02 11:36:18;;;;;;;1.25;0.28;;;21.60;99.90;;;;;;5029552;28;20049;-83
2023/09/02 11:38:44;;;;;;;0.20;0.20;;;21.60;99.90;;;;;;5047686;28;20063;-83
2023/09/02 11:41:21;;;;;;;0.20;0.20;;;21.60;99.90;;;;;;5041519;28;20049;-83
2023/09/02 11:43:46;;;;;;;0.20;0.20;;;21.70;99.90;;;;;;5016427;28;20094;-82
2023/09/02 11:46:12;;;;;;;0.20;0.20;;;21.80;99.90;;;;;;5030517;28;20057;-82
2023/09/02 11:48:38;;;;;;;0.20;0.20;;;22.00;99.90;;;;;;5015736;28;20393;-82
2023/09/02 11:51:03;;;;;;;0.20;0.20;;;22.10;99.90;;;;;;5021602;28;20057;-84
2023/09/02 11:53:30;;;;;;;0.10;0.10;;;22.20;99.90;;;;;;5032002;28;20049;-83
2023/09/02 11:55:57;;;;;;;0.20;0.20;;;22.10;99.90;;;;;;5023502;28;20053;-82
2023/09/02 11:58:23;;;;;;;0.20;0.20;;;22.10;99.90;;;;;;5019481;28;20076;-83
2023/09/02 12:00:49;;;;;;;0.20;0.20;;;22.10;99.90;;;;;;5022503;28;20041;-83
2023/09/02 12:03:28;;;;;;;0.20;0.20;;;22.20;99.90;;;;;;5027711;28;20041;-83
2023/09/02 12:05:58;;;;;;;0.20;0.20;;;22.30;99.90;;;;;;5044295;28;20159;-82
2023/09/02 12:08:24;;;;;;;0.20;0.20;;;22.50;99.90;;;;;;5035300;28;20053;-83
2023/09/02 12:10:49;;;;;;;0.20;0.20;;;22.70;99.90;;;;;;5043813;28;20090;-85
2023/09/02 12:13:16;;;;;;;0.20;0.20;;;22.80;99.90;;;;;;5030958;28;20109;-82
2023/09/02 12:15:46;;;;;;;0.20;0.20;;;23.00;99.90;;;;;;5049511;28;20115;-84
2023/09/02 12:18:12;;;;;;;0.20;0.20;;;23.20;99.90;;;;;;5030545;28;20033;-83
2023/09/02 12:20:38;;;;;;;0.20;0.20;;;23.30;99.90;;;;;;5028120;28;20071;-82
2023/09/02 12:23:05;;;;;;;0.20;0.20;;;23.40;99.90;;;;;;5048466;28;20033;-82
2023/09/02 12:25:33;;;;;;;0.20;0.20;;;23.50;99.90;;;;;;5028371;28;20389;-83
2023/09/02 12:28:13;;;;;;;0.20;0.20;;;23.60;99.90;;;;;;5025838;28;20105;-82
2023/09/02 12:30:39;;;;;;;0.20;0.20;;;23.70;99.90;;;;;;5025843;28;20773;-82
2023/09/02 12:33:05;;;;;;;0.20;0.20;;;23.80;99.90;;;;;;5031057;28;20049;-82
2023/09/02 12:35:32;;;;;;;0.20;0.20;;;23.90;99.90;;;;;;5029341;28;20461;-82
2023/09/02 12:38:09;;;;;;;0.20;0.20;;;23.90;99.90;;;;;;5030648;28;20040;-82
2023/09/02 12:40:35;;;;;;;0.20;0.20;;;23.80;99.90;;;;;;5044980;28;20087;-82
2023/09/02 12:43:02;;;;;;;0.20;0.20;;;23.80;99.90;;;;;;5033820;28;20041;-83
2023/09/02 12:45:43;;;;;;;0.20;0.20;;;23.90;99.90;;;;;;5034300;28;20086;-82
2023/09/02 12:48:09;;;;;;;0.20;0.20;;;24.00;99.90;;;;;;5051029;28;20084;-81
2023/09/02 12:50:34;;;;;;;0.20;0.20;;;24.10;99.90;;;;;;5021979;28;20041;-82